sensor_id;sensor_type;location;lat;lon;timestamp;P1;durP1;ratioP1;P2;durP2;ratioP2
14394;SDS011;7282;49.204;10.652;2022-08-30T00:01:42;7.33;;;6.63;;
14394;SDS011;7282;49.204;10.652;2022-08-30T00:04:09;7.13;;;6.43;;
14394;SDS011;7282;49.204;10.652;2022-08-30T00:06:36;7.83;;;7.13;;
14394;SDS011;7282;49.204;10.652;2022-08-30T00:09:03;7.70;;;6.90;;
14394;SDS011;7282;49.204;10.652;2022-08-30T00:11:29;8.20;;;6.87;;
14394;SDS011;7282;49.204;10.652;2022-08-30T00:13:56;7.17;;;6.57;;
14394;SDS011;7282;49.204;10.652;2022-08-30T00:16:24;7.83;;;7.03;;
14394;SDS011;7282;49.204;10.652;2022-08-30T00:18:51;8.03;;;6.90;;
14394;SDS011;7282;49.204;10.652;2022-08-30T00:21:22;7.30;;;6.60;;
14394;SDS011;7282;49.204;10.652;2022-08-30T00:23:48;8.97;;;7.00;;
14394;SDS011;7282;49.204;10.652;2022-08-30T00:26:15;8.20;;;7.30;;
14394;SDS011;7282;49.204;10.652;2022-08-30T00:28:42;7.20;;;6.47;;
14394;SDS011;7282;49.204;10.652;2022-08-30T00:31:08;8.23;;;6.80;;
14394;SDS011;7282;49.204;10.652;2022-08-30T00:33:35;7.60;;;6.40;;
14394;SDS011;7282;49.204;10.652;2022-08-30T00:36:02;6.77;;;6.10;;
14394;SDS011;7282;49.204;10.652;2022-08-30T00:38:29;7.33;;;6.50;;
14394;SDS011;7282;49.204;10.652;2022-08-30T00:40:55;8.20;;;7.37;;
14394;SDS011;7282;49.204;10.652;2022-08-30T00:43:24;8.30;;;7.07;;
14394;SDS011;7282;49.204;10.652;2022-08-30T00:45:51;8.33;;;7.53;;
14394;SDS011;7282;49.204;10.652;2022-08-30T00:48:17;7.70;;;6.97;;
14394;SDS011;7282;49.204;10.652;2022-08-30T00:50:48;9.27;;;7.37;;
14394;SDS011;7282;49.204;10.652;2022-08-30T00:53:16;10.60;;;8.50;;
14394;SDS011;7282;49.204;10.652;2022-08-30T00:55:44;12.03;;;8.57;;
14394;SDS011;7282;49.204;10.652;2022-08-30T00:58:12;8.40;;;7.60;;
14394;SDS011;7282;49.204;10.652;2022-08-30T01:00:41;9.00;;;8.10;;
14394;SDS011;7282;49.204;10.652;2022-08-30T01:03:08;9.77;;;8.60;;
14394;SDS011;7282;49.204;10.652;2022-08-30T01:05:36;9.23;;;7.40;;
14394;SDS011;7282;49.204;10.652;2022-08-30T01:08:04;8.87;;;8.07;;
14394;SDS011;7282;49.204;10.652;2022-08-30T01:10:32;9.50;;;8.50;;
14394;SDS011;7282;49.204;10.652;2022-08-30T01:12:59;12.57;;;8.67;;
14394;SDS011;7282;49.204;10.652;2022-08-30T01:15:26;9.77;;;8.70;;
14394;SDS011;7282;49.204;10.652;2022-08-30T01:17:52;9.17;;;8.27;;
14394;SDS011;7282;49.204;10.652;2022-08-30T01:20:24;10.17;;;8.07;;
14394;SDS011;7282;49.204;10.652;2022-08-30T01:25:22;9.03;;;8.13;;
14394;SDS011;7282;49.204;10.652;2022-08-30T01:27:55;7.93;;;7.20;;
14394;SDS011;7282;49.204;10.652;2022-08-30T01:30:17;9.47;;;8.57;;
14394;SDS011;7282;49.204;10.652;2022-08-30T01:32:45;8.63;;;7.73;;
14394;SDS011;7282;49.204;10.652;2022-08-30T01:35:14;8.33;;;7.63;;
14394;SDS011;7282;49.204;10.652;2022-08-30T01:37:40;9.63;;;7.77;;
14394;SDS011;7282;49.204;10.652;2022-08-30T01:40:08;9.60;;;7.93;;
14394;SDS011;7282;49.204;10.652;2022-08-30T01:42:35;7.77;;;6.97;;
14394;SDS011;7282;49.204;10.652;2022-08-30T01:45:03;8.50;;;6.73;;
14394;SDS011;7282;49.204;10.652;2022-08-30T01:47:30;9.63;;;7.83;;
14394;SDS011;7282;49.204;10.652;2022-08-30T01:49:57;8.37;;;7.37;;
14394;SDS011;7282;49.204;10.652;2022-08-30T01:52:25;8.33;;;7.53;;
14394;SDS011;7282;49.204;10.652;2022-08-30T01:54:52;9.17;;;8.37;;
14394;SDS011;7282;49.204;10.652;2022-08-30T01:57:20;10.10;;;7.80;;
14394;SDS011;7282;49.204;10.652;2022-08-30T01:59:48;9.50;;;8.43;;
14394;SDS011;7282;49.204;10.652;2022-08-30T02:02:23;7.77;;;6.97;;
14394;SDS011;7282;49.204;10.652;2022-08-30T02:04:47;8.07;;;7.00;;
14394;SDS011;7282;49.204;10.652;2022-08-30T02:07:14;8.27;;;7.50;;
14394;SDS011;7282;49.204;10.652;2022-08-30T02:09:41;8.47;;;7.67;;
14394;SDS011;7282;49.204;10.652;2022-08-30T02:12:08;8.87;;;7.93;;
14394;SDS011;7282;49.204;10.652;2022-08-30T02:14:35;10.63;;;8.73;;
14394;SDS011;7282;49.204;10.652;2022-08-30T02:17:03;8.63;;;7.73;;
14394;SDS011;7282;49.204;10.652;2022-08-30T02:19:30;10.33;;;9.10;;
14394;SDS011;7282;49.204;10.652;2022-08-30T02:21:57;10.07;;;8.97;;
14394;SDS011;7282;49.204;10.652;2022-08-30T02:24:23;8.93;;;7.87;;
14394;SDS011;7282;49.204;10.652;2022-08-30T02:26:50;9.40;;;8.50;;
14394;SDS011;7282;49.204;10.652;2022-08-30T02:29:19;9.43;;;8.53;;
14394;SDS011;7282;49.204;10.652;2022-08-30T02:31:46;9.00;;;8.13;;
14394;SDS011;7282;49.204;10.652;2022-08-30T02:34:12;8.73;;;7.90;;
14394;SDS011;7282;49.204;10.652;2022-08-30T02:36:39;8.40;;;7.50;;
14394;SDS011;7282;49.204;10.652;2022-08-30T02:39:07;9.17;;;8.30;;
14394;SDS011;7282;49.204;10.652;2022-08-30T02:41:34;10.73;;;7.87;;
14394;SDS011;7282;49.204;10.652;2022-08-30T02:44:03;8.80;;;7.83;;
14394;SDS011;7282;49.204;10.652;2022-08-30T02:46:30;8.60;;;7.80;;
14394;SDS011;7282;49.204;10.652;2022-08-30T02:48:57;10.13;;;9.17;;
14394;SDS011;7282;49.204;10.652;2022-08-30T02:51:23;8.83;;;7.97;;
14394;SDS011;7282;49.204;10.652;2022-08-30T02:53:51;8.60;;;7.80;;
14394;SDS011;7282;49.204;10.652;2022-08-30T02:56:17;9.87;;;8.53;;
14394;SDS011;7282;49.204;10.652;2022-08-30T02:58:44;9.17;;;8.27;;
14394;SDS011;7282;49.204;10.652;2022-08-30T03:01:12;8.83;;;7.93;;
14394;SDS011;7282;49.204;10.652;2022-08-30T03:03:39;8.50;;;7.70;;
14394;SDS011;7282;49.204;10.652;2022-08-30T03:06:06;8.17;;;7.47;;
14394;SDS011;7282;49.204;10.652;2022-08-30T03:08:35;8.37;;;7.57;;
14394;SDS011;7282;49.204;10.652;2022-08-30T03:11:02;8.43;;;7.00;;
14394;SDS011;7282;49.204;10.652;2022-08-30T03:13:29;9.37;;;7.83;;
14394;SDS011;7282;49.204;10.652;2022-08-30T03:15:56;8.73;;;7.57;;
14394;SDS011;7282;49.204;10.652;2022-08-30T03:18:23;9.87;;;8.63;;
14394;SDS011;7282;49.204;10.652;2022-08-30T03:20:50;8.37;;;7.60;;
14394;SDS011;7282;49.204;10.652;2022-08-30T03:23:17;9.77;;;8.40;;
14394;SDS011;7282;49.204;10.652;2022-08-30T03:25:44;8.87;;;8.07;;
14394;SDS011;7282;49.204;10.652;2022-08-30T03:28:10;8.77;;;7.97;;
14394;SDS011;7282;49.204;10.652;2022-08-30T03:30:37;8.47;;;7.20;;
14394;SDS011;7282;49.204;10.652;2022-08-30T03:33:04;7.43;;;6.73;;
14394;SDS011;7282;49.204;10.652;2022-08-30T03:35:31;9.77;;;8.63;;
14394;SDS011;7282;49.204;10.652;2022-08-30T03:37:58;9.23;;;8.23;;
14394;SDS011;7282;49.204;10.652;2022-08-30T03:40:24;8.97;;;8.07;;
14394;SDS011;7282;49.204;10.652;2022-08-30T03:42:51;9.87;;;8.67;;
14394;SDS011;7282;49.204;10.652;2022-08-30T03:45:18;9.90;;;8.50;;
14394;SDS011;7282;49.204;10.652;2022-08-30T03:47:48;8.77;;;7.97;;
14394;SDS011;7282;49.204;10.652;2022-08-30T03:50:15;8.53;;;7.70;;
14394;SDS011;7282;49.204;10.652;2022-08-30T03:52:42;8.90;;;8.03;;
14394;SDS011;7282;49.204;10.652;2022-08-30T03:55:10;8.90;;;8.03;;
14394;SDS011;7282;49.204;10.652;2022-08-30T03:57:37;9.23;;;8.27;;
14394;SDS011;7282;49.204;10.652;2022-08-30T04:00:05;10.20;;;9.20;;
14394;SDS011;7282;49.204;10.652;2022-08-30T04:02:32;8.70;;;7.93;;
14394;SDS011;7282;49.204;10.652;2022-08-30T04:04:59;8.73;;;7.93;;
14394;SDS011;7282;49.204;10.652;2022-08-30T04:07:26;11.47;;;9.07;;
14394;SDS011;7282;49.204;10.652;2022-08-30T04:09:52;12.53;;;9.20;;
14394;SDS011;7282;49.204;10.652;2022-08-30T04:12:19;8.70;;;7.80;;
14394;SDS011;7282;49.204;10.652;2022-08-30T04:14:46;9.23;;;8.30;;
14394;SDS011;7282;49.204;10.652;2022-08-30T04:17:12;8.97;;;8.17;;
14394;SDS011;7282;49.204;10.652;2022-08-30T04:19:39;9.40;;;8.17;;
14394;SDS011;7282;49.204;10.652;2022-08-30T04:22:06;8.43;;;7.73;;
14394;SDS011;7282;49.204;10.652;2022-08-30T04:24:33;8.80;;;8.00;;
14394;SDS011;7282;49.204;10.652;2022-08-30T04:26:59;9.00;;;8.07;;
14394;SDS011;7282;49.204;10.652;2022-08-30T04:29:26;10.33;;;9.33;;
14394;SDS011;7282;49.204;10.652;2022-08-30T04:31:53;8.97;;;8.07;;
14394;SDS011;7282;49.204;10.652;2022-08-30T04:34:20;10.17;;;9.17;;
14394;SDS011;7282;49.204;10.652;2022-08-30T04:36:49;9.20;;;8.40;;
14394;SDS011;7282;49.204;10.652;2022-08-30T04:39:16;12.67;;;9.87;;
14394;SDS011;7282;49.204;10.652;2022-08-30T04:41:43;9.90;;;8.90;;
14394;SDS011;7282;49.204;10.652;2022-08-30T04:44:10;10.20;;;9.10;;
14394;SDS011;7282;49.204;10.652;2022-08-30T04:46:36;9.93;;;9.03;;
14394;SDS011;7282;49.204;10.652;2022-08-30T04:49:03;10.07;;;8.87;;
14394;SDS011;7282;49.204;10.652;2022-08-30T04:51:30;14.63;;;11.40;;
14394;SDS011;7282;49.204;10.652;2022-08-30T04:53:57;11.17;;;9.43;;
14394;SDS011;7282;49.204;10.652;2022-08-30T04:56:23;12.67;;;9.40;;
14394;SDS011;7282;49.204;10.652;2022-08-30T04:58:51;10.33;;;9.03;;
14394;SDS011;7282;49.204;10.652;2022-08-30T05:01:20;9.73;;;8.73;;
14394;SDS011;7282;49.204;10.652;2022-08-30T05:03:47;9.73;;;8.73;;
14394;SDS011;7282;49.204;10.652;2022-08-30T05:06:14;11.00;;;8.90;;
14394;SDS011;7282;49.204;10.652;2022-08-30T05:08:42;9.37;;;8.23;;
14394;SDS011;7282;49.204;10.652;2022-08-30T05:11:09;8.90;;;8.10;;
14394;SDS011;7282;49.204;10.652;2022-08-30T05:13:36;10.33;;;8.17;;
14394;SDS011;7282;49.204;10.652;2022-08-30T05:16:03;9.27;;;8.17;;
14394;SDS011;7282;49.204;10.652;2022-08-30T05:18:30;9.20;;;7.67;;
14394;SDS011;7282;49.204;10.652;2022-08-30T05:21:07;10.83;;;8.50;;
14394;SDS011;7282;49.204;10.652;2022-08-30T05:23:35;9.47;;;8.00;;
14394;SDS011;7282;49.204;10.652;2022-08-30T05:26:09;7.90;;;7.30;;
14394;SDS011;7282;49.204;10.652;2022-08-30T05:28:33;8.87;;;8.03;;
14394;SDS011;7282;49.204;10.652;2022-08-30T05:31:01;9.30;;;8.40;;
14394;SDS011;7282;49.204;10.652;2022-08-30T05:33:28;8.60;;;7.80;;
14394;SDS011;7282;49.204;10.652;2022-08-30T05:35:55;9.07;;;8.17;;
14394;SDS011;7282;49.204;10.652;2022-08-30T05:38:21;11.43;;;9.53;;
14394;SDS011;7282;49.204;10.652;2022-08-30T05:40:48;9.63;;;8.63;;
14394;SDS011;7282;49.204;10.652;2022-08-30T05:43:20;9.87;;;8.63;;
14394;SDS011;7282;49.204;10.652;2022-08-30T05:45:43;8.40;;;7.60;;
14394;SDS011;7282;49.204;10.652;2022-08-30T05:48:10;8.63;;;7.67;;
14394;SDS011;7282;49.204;10.652;2022-08-30T05:50:37;8.50;;;7.60;;
14394;SDS011;7282;49.204;10.652;2022-08-30T05:53:03;8.80;;;8.00;;
14394;SDS011;7282;49.204;10.652;2022-08-30T05:55:30;8.53;;;7.67;;
14394;SDS011;7282;49.204;10.652;2022-08-30T05:57:57;8.47;;;7.57;;
14394;SDS011;7282;49.204;10.652;2022-08-30T06:00:25;8.57;;;7.77;;
14394;SDS011;7282;49.204;10.652;2022-08-30T06:02:54;8.70;;;7.80;;
14394;SDS011;7282;49.204;10.652;2022-08-30T06:05:21;10.20;;;7.83;;
14394;SDS011;7282;49.204;10.652;2022-08-30T06:07:47;9.30;;;8.27;;
14394;SDS011;7282;49.204;10.652;2022-08-30T06:10:14;9.30;;;8.17;;
14394;SDS011;7282;49.204;10.652;2022-08-30T06:12:41;9.43;;;8.43;;
14394;SDS011;7282;49.204;10.652;2022-08-30T06:15:08;8.20;;;7.30;;
14394;SDS011;7282;49.204;10.652;2022-08-30T06:17:34;8.83;;;8.03;;
14394;SDS011;7282;49.204;10.652;2022-08-30T06:20:01;9.10;;;8.20;;
14394;SDS011;7282;49.204;10.652;2022-08-30T06:22:28;8.27;;;7.57;;
14394;SDS011;7282;49.204;10.652;2022-08-30T06:24:55;9.43;;;8.20;;
14394;SDS011;7282;49.204;10.652;2022-08-30T06:27:21;8.47;;;7.67;;
14394;SDS011;7282;49.204;10.652;2022-08-30T06:29:51;8.60;;;7.87;;
14394;SDS011;7282;49.204;10.652;2022-08-30T06:32:18;8.00;;;7.30;;
14394;SDS011;7282;49.204;10.652;2022-08-30T06:34:45;9.17;;;7.57;;
14394;SDS011;7282;49.204;10.652;2022-08-30T06:37:12;8.57;;;7.77;;
14394;SDS011;7282;49.204;10.652;2022-08-30T06:39:39;12.20;;;9.20;;
14394;SDS011;7282;49.204;10.652;2022-08-30T06:42:06;8.50;;;7.70;;
14394;SDS011;7282;49.204;10.652;2022-08-30T06:44:32;9.57;;;8.67;;
14394;SDS011;7282;49.204;10.652;2022-08-30T06:46:59;9.20;;;8.23;;
14394;SDS011;7282;49.204;10.652;2022-08-30T06:49:26;11.90;;;9.90;;
14394;SDS011;7282;49.204;10.652;2022-08-30T06:51:52;11.03;;;9.83;;
14394;SDS011;7282;49.204;10.652;2022-08-30T06:54:19;12.90;;;10.33;;
14394;SDS011;7282;49.204;10.652;2022-08-30T06:56:46;10.10;;;9.10;;
14394;SDS011;7282;49.204;10.652;2022-08-30T06:59:12;10.23;;;9.27;;
14394;SDS011;7282;49.204;10.652;2022-08-30T07:01:39;10.60;;;9.30;;
14394;SDS011;7282;49.204;10.652;2022-08-30T07:04:06;10.63;;;8.87;;
14394;SDS011;7282;49.204;10.652;2022-08-30T07:06:32;9.20;;;8.30;;
14394;SDS011;7282;49.204;10.652;2022-08-30T07:09:00;9.60;;;8.70;;
14394;SDS011;7282;49.204;10.652;2022-08-30T07:11:27;11.53;;;9.83;;
14394;SDS011;7282;49.204;10.652;2022-08-30T07:13:54;10.60;;;9.60;;
14394;SDS011;7282;49.204;10.652;2022-08-30T07:16:21;10.73;;;9.73;;
14394;SDS011;7282;49.204;10.652;2022-08-30T07:18:48;12.17;;;10.07;;
14394;SDS011;7282;49.204;10.652;2022-08-30T07:21:24;11.33;;;10.13;;
14394;SDS011;7282;49.204;10.652;2022-08-30T07:23:51;10.87;;;9.83;;
14394;SDS011;7282;49.204;10.652;2022-08-30T07:26:20;11.03;;;9.83;;
14394;SDS011;7282;49.204;10.652;2022-08-30T07:28:47;10.30;;;9.30;;
14394;SDS011;7282;49.204;10.652;2022-08-30T07:31:14;12.07;;;10.33;;
14394;SDS011;7282;49.204;10.652;2022-08-30T07:33:41;11.80;;;9.57;;
14394;SDS011;7282;49.204;10.652;2022-08-30T07:36:08;9.83;;;8.83;;
14394;SDS011;7282;49.204;10.652;2022-08-30T07:38:35;8.60;;;7.80;;
14394;SDS011;7282;49.204;10.652;2022-08-30T07:41:02;9.60;;;8.37;;
14394;SDS011;7282;49.204;10.652;2022-08-30T07:43:30;11.17;;;8.97;;
14394;SDS011;7282;49.204;10.652;2022-08-30T07:46:05;10.43;;;8.93;;
14394;SDS011;7282;49.204;10.652;2022-08-30T07:48:28;8.60;;;7.63;;
14394;SDS011;7282;49.204;10.652;2022-08-30T07:50:55;7.87;;;7.17;;
14394;SDS011;7282;49.204;10.652;2022-08-30T07:53:22;9.00;;;7.93;;
14394;SDS011;7282;49.204;10.652;2022-08-30T07:55:49;7.43;;;6.73;;
14394;SDS011;7282;49.204;10.652;2022-08-30T07:58:15;7.50;;;6.70;;
14394;SDS011;7282;49.204;10.652;2022-08-30T08:00:42;8.67;;;7.87;;
14394;SDS011;7282;49.204;10.652;2022-08-30T08:03:09;8.07;;;7.27;;
14394;SDS011;7282;49.204;10.652;2022-08-30T08:05:40;8.13;;;7.27;;
14394;SDS011;7282;49.204;10.652;2022-08-30T08:08:07;7.50;;;6.77;;
14394;SDS011;7282;49.204;10.652;2022-08-30T08:10:39;9.53;;;8.20;;
14394;SDS011;7282;49.204;10.652;2022-08-30T08:13:02;9.03;;;7.73;;
14394;SDS011;7282;49.204;10.652;2022-08-30T08:15:29;7.53;;;6.63;;
14394;SDS011;7282;49.204;10.652;2022-08-30T08:17:56;7.20;;;6.50;;
14394;SDS011;7282;49.204;10.652;2022-08-30T08:20:23;8.00;;;7.20;;
14394;SDS011;7282;49.204;10.652;2022-08-30T08:22:51;8.60;;;7.47;;
14394;SDS011;7282;49.204;10.652;2022-08-30T08:25:18;7.80;;;7.00;;
14394;SDS011;7282;49.204;10.652;2022-08-30T08:27:45;9.47;;;8.03;;
14394;SDS011;7282;49.204;10.652;2022-08-30T08:30:13;8.77;;;7.27;;
14394;SDS011;7282;49.204;10.652;2022-08-30T08:32:39;9.37;;;7.80;;
14394;SDS011;7282;49.204;10.652;2022-08-30T08:35:06;8.57;;;7.57;;
14394;SDS011;7282;49.204;10.652;2022-08-30T08:37:33;8.30;;;7.53;;
14394;SDS011;7282;49.204;10.652;2022-08-30T08:40:00;8.13;;;7.33;;
14394;SDS011;7282;49.204;10.652;2022-08-30T08:45:05;7.50;;;6.80;;
14394;SDS011;7282;49.204;10.652;2022-08-30T08:47:38;8.50;;;7.70;;
14394;SDS011;7282;49.204;10.652;2022-08-30T08:50:18;7.63;;;6.87;;
14394;SDS011;7282;49.204;10.652;2022-08-30T08:55:26;6.33;;;5.77;;
14394;SDS011;7282;49.204;10.652;2022-08-30T08:57:55;8.47;;;6.97;;
14394;SDS011;7282;49.204;10.652;2022-08-30T09:00:21;7.37;;;6.60;;
14394;SDS011;7282;49.204;10.652;2022-08-30T09:03:00;6.87;;;5.90;;
14394;SDS011;7282;49.204;10.652;2022-08-30T09:05:24;10.97;;;7.33;;
14394;SDS011;7282;49.204;10.652;2022-08-30T09:07:53;6.77;;;5.40;;
14394;SDS011;7282;49.204;10.652;2022-08-30T09:10:20;6.60;;;5.90;;
14394;SDS011;7282;49.204;10.652;2022-08-30T09:12:47;6.47;;;5.40;;
14394;SDS011;7282;49.204;10.652;2022-08-30T09:15:16;6.43;;;4.93;;
14394;SDS011;7282;49.204;10.652;2022-08-30T09:17:57;5.50;;;4.53;;
14394;SDS011;7282;49.204;10.652;2022-08-30T09:20:24;8.53;;;5.53;;
14394;SDS011;7282;49.204;10.652;2022-08-30T09:22:52;6.50;;;5.27;;
14394;SDS011;7282;49.204;10.652;2022-08-30T09:25:23;5.07;;;4.43;;
14394;SDS011;7282;49.204;10.652;2022-08-30T09:27:50;5.57;;;4.97;;
14394;SDS011;7282;49.204;10.652;2022-08-30T09:30:19;5.33;;;4.23;;
14394;SDS011;7282;49.204;10.652;2022-08-30T09:32:50;5.40;;;4.47;;
14394;SDS011;7282;49.204;10.652;2022-08-30T09:35:18;5.20;;;4.20;;
14394;SDS011;7282;49.204;10.652;2022-08-30T09:40:23;4.67;;;4.17;;
14394;SDS011;7282;49.204;10.652;2022-08-30T09:42:59;6.17;;;4.40;;
14394;SDS011;7282;49.204;10.652;2022-08-30T09:45:31;7.17;;;4.87;;
14394;SDS011;7282;49.204;10.652;2022-08-30T09:47:57;4.70;;;4.23;;
14394;SDS011;7282;49.204;10.652;2022-08-30T09:50:24;5.63;;;4.63;;
14394;SDS011;7282;49.204;10.652;2022-08-30T09:52:59;6.17;;;4.70;;
14394;SDS011;7282;49.204;10.652;2022-08-30T09:58:20;4.77;;;4.00;;
14394;SDS011;7282;49.204;10.652;2022-08-30T10:00:47;5.07;;;4.50;;
14394;SDS011;7282;49.204;10.652;2022-08-30T10:11:15;4.63;;;3.60;;
14394;SDS011;7282;49.204;10.652;2022-08-30T10:13:54;5.37;;;4.63;;
14394;SDS011;7282;49.204;10.652;2022-08-30T10:19:00;5.27;;;4.30;;
14394;SDS011;7282;49.204;10.652;2022-08-30T10:21:26;5.03;;;4.50;;
14394;SDS011;7282;49.204;10.652;2022-08-30T10:23:56;5.20;;;4.70;;
14394;SDS011;7282;49.204;10.652;2022-08-30T10:26:30;4.87;;;4.07;;
14394;SDS011;7282;49.204;10.652;2022-08-30T10:28:54;5.27;;;4.30;;
14394;SDS011;7282;49.204;10.652;2022-08-30T10:31:24;4.97;;;4.00;;
14394;SDS011;7282;49.204;10.652;2022-08-30T10:33:51;4.87;;;4.40;;
14394;SDS011;7282;49.204;10.652;2022-08-30T10:36:20;5.17;;;4.00;;
14394;SDS011;7282;49.204;10.652;2022-08-30T10:38:48;4.13;;;3.63;;
14394;SDS011;7282;49.204;10.652;2022-08-30T10:41:19;4.07;;;3.63;;
14394;SDS011;7282;49.204;10.652;2022-08-30T10:44:00;4.47;;;4.07;;
14394;SDS011;7282;49.204;10.652;2022-08-30T10:49:14;4.67;;;4.20;;
14394;SDS011;7282;49.204;10.652;2022-08-30T10:51:46;4.73;;;3.87;;
14394;SDS011;7282;49.204;10.652;2022-08-30T10:54:12;4.27;;;3.57;;
14394;SDS011;7282;49.204;10.652;2022-08-30T10:56:39;5.63;;;3.87;;
14394;SDS011;7282;49.204;10.652;2022-08-30T10:59:06;5.07;;;3.97;;
14394;SDS011;7282;49.204;10.652;2022-08-30T11:04:16;4.63;;;4.17;;
14394;SDS011;7282;49.204;10.652;2022-08-30T11:06:45;6.83;;;5.63;;
14394;SDS011;7282;49.204;10.652;2022-08-30T11:09:31;5.00;;;4.60;;
14394;SDS011;7282;49.204;10.652;2022-08-30T11:14:39;4.27;;;3.87;;
14394;SDS011;7282;49.204;10.652;2022-08-30T11:17:08;4.10;;;3.80;;
14394;SDS011;7282;49.204;10.652;2022-08-30T11:19:37;4.97;;;4.13;;
14394;SDS011;7282;49.204;10.652;2022-08-30T11:24:59;3.97;;;3.57;;
14394;SDS011;7282;49.204;10.652;2022-08-30T11:27:39;5.83;;;3.20;;
14394;SDS011;7282;49.204;10.652;2022-08-30T11:32:57;4.10;;;3.67;;
14394;SDS011;7282;49.204;10.652;2022-08-30T11:35:34;4.07;;;3.77;;
14394;SDS011;7282;49.204;10.652;2022-08-30T11:40:49;6.17;;;5.57;;
14394;SDS011;7282;49.204;10.652;2022-08-30T11:46:33;4.70;;;3.60;;
14394;SDS011;7282;49.204;10.652;2022-08-30T11:48:59;5.37;;;3.50;;
14394;SDS011;7282;49.204;10.652;2022-08-30T12:01:39;5.27;;;3.77;;
14394;SDS011;7282;49.204;10.652;2022-08-30T12:04:25;3.80;;;3.50;;
14394;SDS011;7282;49.204;10.652;2022-08-30T12:14:39;5.10;;;3.70;;
14394;SDS011;7282;49.204;10.652;2022-08-30T12:17:09;3.83;;;3.53;;
14394;SDS011;7282;49.204;10.652;2022-08-30T12:19:49;4.93;;;3.57;;
14394;SDS011;7282;49.204;10.652;2022-08-30T12:22:16;3.87;;;3.20;;
14394;SDS011;7282;49.204;10.652;2022-08-30T12:24:45;3.30;;;3.00;;
14394;SDS011;7282;49.204;10.652;2022-08-30T12:27:25;3.13;;;2.70;;
14394;SDS011;7282;49.204;10.652;2022-08-30T12:29:54;3.40;;;3.10;;
14394;SDS011;7282;49.204;10.652;2022-08-30T12:32:21;3.83;;;3.50;;
14394;SDS011;7282;49.204;10.652;2022-08-30T12:34:53;7.10;;;3.90;;
14394;SDS011;7282;49.204;10.652;2022-08-30T12:37:21;3.50;;;3.20;;
14394;SDS011;7282;49.204;10.652;2022-08-30T12:39:52;4.20;;;3.33;;
14394;SDS011;7282;49.204;10.652;2022-08-30T12:42:18;3.90;;;3.57;;
14394;SDS011;7282;49.204;10.652;2022-08-30T12:44:45;5.47;;;3.83;;
14394;SDS011;7282;49.204;10.652;2022-08-30T12:47:13;4.33;;;3.60;;
14394;SDS011;7282;49.204;10.652;2022-08-30T12:49:42;4.20;;;3.70;;
14394;SDS011;7282;49.204;10.652;2022-08-30T12:52:33;3.77;;;3.47;;
14394;SDS011;7282;49.204;10.652;2022-08-30T12:54:42;4.53;;;3.73;;
14394;SDS011;7282;49.204;10.652;2022-08-30T12:57:10;3.73;;;3.43;;
14394;SDS011;7282;49.204;10.652;2022-08-30T12:59:43;5.13;;;3.33;;
14394;SDS011;7282;49.204;10.652;2022-08-30T13:02:18;4.23;;;3.60;;
14394;SDS011;7282;49.204;10.652;2022-08-30T13:04:45;5.97;;;3.80;;
14394;SDS011;7282;49.204;10.652;2022-08-30T13:07:24;5.00;;;3.73;;
14394;SDS011;7282;49.204;10.652;2022-08-30T13:09:58;5.40;;;3.90;;
14394;SDS011;7282;49.204;10.652;2022-08-30T13:12:21;4.30;;;3.53;;
14394;SDS011;7282;49.204;10.652;2022-08-30T13:14:48;3.50;;;3.20;;
14394;SDS011;7282;49.204;10.652;2022-08-30T13:19:55;4.27;;;3.43;;
14394;SDS011;7282;49.204;10.652;2022-08-30T13:22:27;3.30;;;3.00;;
14394;SDS011;7282;49.204;10.652;2022-08-30T13:24:50;3.47;;;3.17;;
14394;SDS011;7282;49.204;10.652;2022-08-30T13:27:17;4.63;;;3.40;;
14394;SDS011;7282;49.204;10.652;2022-08-30T13:29:44;3.63;;;3.30;;
14394;SDS011;7282;49.204;10.652;2022-08-30T13:32:11;3.97;;;3.60;;
14394;SDS011;7282;49.204;10.652;2022-08-30T13:34:39;4.17;;;3.40;;
14394;SDS011;7282;49.204;10.652;2022-08-30T13:37:07;3.43;;;3.13;;
14394;SDS011;7282;49.204;10.652;2022-08-30T13:39:35;4.40;;;3.20;;
14394;SDS011;7282;49.204;10.652;2022-08-30T13:42:01;5.03;;;3.30;;
14394;SDS011;7282;49.204;10.652;2022-08-30T13:44:28;3.83;;;3.43;;
14394;SDS011;7282;49.204;10.652;2022-08-30T13:46:55;3.47;;;3.17;;
14394;SDS011;7282;49.204;10.652;2022-08-30T13:49:24;4.80;;;3.30;;
14394;SDS011;7282;49.204;10.652;2022-08-30T13:51:51;3.73;;;3.20;;
14394;SDS011;7282;49.204;10.652;2022-08-30T13:54:19;3.30;;;3.00;;
14394;SDS011;7282;49.204;10.652;2022-08-30T13:56:48;3.60;;;3.20;;
14394;SDS011;7282;49.204;10.652;2022-08-30T13:59:15;3.17;;;2.87;;
14394;SDS011;7282;49.204;10.652;2022-08-30T14:01:43;2.87;;;2.60;;
14394;SDS011;7282;49.204;10.652;2022-08-30T14:04:10;5.33;;;3.47;;
14394;SDS011;7282;49.204;10.652;2022-08-30T14:06:36;3.17;;;2.87;;
14394;SDS011;7282;49.204;10.652;2022-08-30T14:09:03;3.50;;;3.20;;
14394;SDS011;7282;49.204;10.652;2022-08-30T14:11:32;3.77;;;3.43;;
14394;SDS011;7282;49.204;10.652;2022-08-30T14:13:59;3.30;;;3.00;;
14394;SDS011;7282;49.204;10.652;2022-08-30T14:16:27;3.60;;;3.30;;
14394;SDS011;7282;49.204;10.652;2022-08-30T14:18:54;3.50;;;3.20;;
14394;SDS011;7282;49.204;10.652;2022-08-30T14:21:21;3.40;;;3.07;;
14394;SDS011;7282;49.204;10.652;2022-08-30T14:23:47;3.00;;;2.73;;
14394;SDS011;7282;49.204;10.652;2022-08-30T14:26:19;3.07;;;2.87;;
14394;SDS011;7282;49.204;10.652;2022-08-30T14:28:45;3.80;;;3.37;;
14394;SDS011;7282;49.204;10.652;2022-08-30T14:31:13;3.30;;;3.00;;
14394;SDS011;7282;49.204;10.652;2022-08-30T14:33:41;3.37;;;3.07;;
14394;SDS011;7282;49.204;10.652;2022-08-30T14:36:08;5.43;;;3.77;;
14394;SDS011;7282;49.204;10.652;2022-08-30T14:38:35;4.03;;;3.20;;
14394;SDS011;7282;49.204;10.652;2022-08-30T14:41:02;3.40;;;3.10;;
14394;SDS011;7282;49.204;10.652;2022-08-30T14:43:29;3.07;;;2.83;;
14394;SDS011;7282;49.204;10.652;2022-08-30T14:45:56;3.50;;;3.20;;
14394;SDS011;7282;49.204;10.652;2022-08-30T14:48:23;3.37;;;3.00;;
14394;SDS011;7282;49.204;10.652;2022-08-30T14:50:50;3.30;;;3.00;;
14394;SDS011;7282;49.204;10.652;2022-08-30T14:53:17;3.57;;;3.27;;
14394;SDS011;7282;49.204;10.652;2022-08-30T14:55:44;3.37;;;3.07;;
14394;SDS011;7282;49.204;10.652;2022-08-30T14:58:10;3.10;;;2.80;;
14394;SDS011;7282;49.204;10.652;2022-08-30T15:00:37;3.53;;;3.13;;
14394;SDS011;7282;49.204;10.652;2022-08-30T15:03:04;3.20;;;2.90;;
14394;SDS011;7282;49.204;10.652;2022-08-30T15:05:31;3.70;;;3.40;;
14394;SDS011;7282;49.204;10.652;2022-08-30T15:07:57;4.33;;;3.27;;
14394;SDS011;7282;49.204;10.652;2022-08-30T15:10:24;3.87;;;3.37;;
14394;SDS011;7282;49.204;10.652;2022-08-30T15:12:51;3.50;;;3.20;;
14394;SDS011;7282;49.204;10.652;2022-08-30T15:15:20;3.50;;;3.20;;
14394;SDS011;7282;49.204;10.652;2022-08-30T15:17:47;3.33;;;3.03;;
14394;SDS011;7282;49.204;10.652;2022-08-30T15:20:15;3.10;;;2.80;;
14394;SDS011;7282;49.204;10.652;2022-08-30T15:22:44;3.50;;;3.20;;
14394;SDS011;7282;49.204;10.652;2022-08-30T15:25:11;4.47;;;3.77;;
14394;SDS011;7282;49.204;10.652;2022-08-30T15:27:38;3.80;;;3.40;;
14394;SDS011;7282;49.204;10.652;2022-08-30T15:30:05;4.53;;;3.20;;
14394;SDS011;7282;49.204;10.652;2022-08-30T15:32:32;3.70;;;3.20;;
14394;SDS011;7282;49.204;10.652;2022-08-30T15:34:59;6.37;;;3.37;;
14394;SDS011;7282;49.204;10.652;2022-08-30T15:37:25;4.27;;;3.70;;
14394;SDS011;7282;49.204;10.652;2022-08-30T15:39:52;4.43;;;3.40;;
14394;SDS011;7282;49.204;10.652;2022-08-30T15:42:19;3.70;;;3.37;;
14394;SDS011;7282;49.204;10.652;2022-08-30T15:44:49;5.10;;;3.13;;
14394;SDS011;7282;49.204;10.652;2022-08-30T15:47:18;3.43;;;3.07;;
14394;SDS011;7282;49.204;10.652;2022-08-30T15:49:53;3.70;;;3.40;;
14394;SDS011;7282;49.204;10.652;2022-08-30T15:52:21;3.77;;;3.30;;
14394;SDS011;7282;49.204;10.652;2022-08-30T15:54:47;3.40;;;3.10;;